Time;durP1;ratioP1;P1;durP2;ratioP2;P2;SDS_P1;SDS_P2;PMS_P1;PMS_P2;Temp;Humidity;BMP_temperature;BMP_pressure;BME280_temperature;BME280_humidity;BME280_pressure;Samples;Min_cycle;Max_cycle;Signal;HPM_P1;HPM_P2
2022/12/26 00:02:14;;;;;;;;;;;;;;;-11.83;52.75;97813.72;6298723;28;19927;-67
2022/12/26 00:05:17;;;;;;;;;;;;;;;-11.82;52.42;97815.44;6298580;28;20413;-67
2022/12/26 00:08:18;;;;;;;;;;;;;;;-11.93;52.40;97811.66;6297827;28;19920;-67
2022/12/26 00:11:22;;;;;;;;;;;;;;;-11.84;52.04;97809.44;6298714;28;20015;-67
2022/12/26 00:14:23;;;;;;;;;;;;;;;-12.06;52.58;97819.59;6297647;28;19974;-67
2022/12/26 00:17:24;;;;;;;;;;;;;;;-12.10;52.62;97812.69;6296978;28;19982;-67
2022/12/26 00:20:30;;;;;;;;;;;;;;;-12.16;52.58;97815.00;6298147;28;19923;-67
2022/12/26 00:23:32;;;;;;;;;;;;;;;-11.91;52.36;97815.13;6298222;28;19927;-67
2022/12/26 00:26:34;;;;;;;;;;;;;;;-12.18;52.38;97809.00;6297439;28;19927;-67
2022/12/26 00:29:35;;;;;;;;;;;;;;;-12.50;53.28;97816.22;6298086;28;20077;-67
2022/12/26 00:32:41;;;;;;;;;;;;;;;-12.23;53.46;97812.25;6298176;28;19959;-67
2022/12/26 00:35:44;;;;;;;;;;;;;;;-12.26;53.30;97821.38;6297194;28;20001;-66
2022/12/26 00:38:48;;;;;;;;;;;;;;;-12.36;53.38;97820.16;6297414;28;19920;-67
2022/12/26 00:41:51;;;;;;;;;;;;;;;-12.17;53.28;97820.88;6297698;28;20294;-67
2022/12/26 00:44:53;;;;;;;;;;;;;;;-12.12;53.33;97810.09;6297236;28;20019;-67
2022/12/26 00:47:55;;;;;;;;;;;;;;;-12.28;53.36;97818.78;6297208;28;20297;-67
2022/12/26 00:50:56;;;;;;;;;;;;;;;-12.21;53.21;97805.53;6297032;28;20070;-67
2022/12/26 00:54:00;;;;;;;;;;;;;;;-12.26;53.77;97807.00;6297575;28;19920;-67
2022/12/26 00:57:01;;;;;;;;;;;;;;;-12.42;53.83;97814.84;6296843;28;19928;-67
2022/12/26 01:00:04;;;;;;;;;;;;;;;-12.28;53.51;97813.72;6297373;28;19920;-67
2022/12/26 01:03:09;;;;;;;;;;;;;;;-12.36;53.66;97814.22;6296229;28;19927;-68
2022/12/26 01:06:10;;;;;;;;;;;;;;;-12.15;53.75;97820.13;6296655;28;19920;-68
2022/12/26 01:09:14;;;;;;;;;;;;;;;-12.12;53.04;97814.31;6296752;28;19920;-67
2022/12/26 01:12:17;;;;;;;;;;;;;;;-12.42;53.65;97819.94;6296766;28;19920;-66
2022/12/26 01:15:20;;;;;;;;;;;;;;;-12.34;53.94;97813.50;6296239;28;19927;-68
2022/12/26 01:18:24;;;;;;;;;;;;;;;-12.37;53.83;97813.34;6296863;28;19920;-67
2022/12/26 01:21:29;;;;;;;;;;;;;;;-12.25;53.87;97813.84;6296905;28;19916;-67
2022/12/26 01:24:33;;;;;;;;;;;;;;;-12.16;53.85;97815.00;6296890;28;20309;-66
2022/12/26 01:27:37;;;;;;;;;;;;;;;-12.11;53.36;97822.00;6294784;28;19920;-67
2022/12/26 01:30:40;;;;;;;;;;;;;;;-12.17;53.76;97824.28;6296575;28;20301;-66
2022/12/26 01:33:45;;;;;;;;;;;;;;;-12.24;53.47;97823.16;6296523;28;19924;-67
2022/12/26 01:36:50;;;;;;;;;;;;;;;-12.15;53.49;97816.72;6296061;28;19920;-68
2022/12/26 01:39:56;;;;;;;;;;;;;;;-12.05;53.51;97826.44;6296323;28;20412;-67
2022/12/26 01:42:57;;;;;;;;;;;;;;;-12.12;53.61;97820.25;6296189;28;19924;-67
2022/12/26 01:46:04;;;;;;;;;;;;;;;-11.82;53.61;97810.38;6295230;28;19921;-67
2022/12/26 01:49:28;;;;;;;;;;;;;;;-11.87;53.05;97809.34;6295556;28;19920;-67
2022/12/26 01:52:35;;;;;;;;;;;;;;;-11.81;53.14;97811.22;6287762;28;19943;-69
2022/12/26 01:55:40;;;;;;;;;;;;;;;-12.01;53.66;97823.19;6295899;28;20389;-68
2022/12/26 01:58:43;;;;;;;;;;;;;;;-11.98;53.57;97823.31;6295680;28;20018;-67
2022/12/26 02:01:46;;;;;;;;;;;;;;;-11.88;53.57;97834.69;6295359;28;20401;-67
2022/12/26 02:08:18;;;;;;;;;;;;;;;-11.81;53.70;97832.38;6296019;28;20313;-67
2022/12/26 02:11:24;;;;;;;;;;;;;;;-11.74;53.09;97832.66;6295933;28;20372;-68
2022/12/26 02:14:27;;;;;;;;;;;;;;;-11.74;53.06;97827.56;6295366;28;19916;-67
2022/12/26 02:17:28;;;;;;;;;;;;;;;-11.96;53.38;97834.38;6294851;28;19943;-67
2022/12/26 02:20:39;;;;;;;;;;;;;;;-11.96;53.20;97834.38;6295605;28;19916;-67
2022/12/26 02:23:52;;;;;;;;;;;;;;;-11.90;53.24;97837.16;6294875;28;19928;-67
2022/12/26 02:27:20;;;;;;;;;;;;;;;-11.71;53.29;97835.28;6295491;28;19924;-67
2022/12/26 02:30:26;;;;;;;;;;;;;;;-11.94;53.26;97834.44;6295843;28;19921;-67
2022/12/26 02:33:41;;;;;;;;;;;;;;;-12.06;53.56;97834.84;6295528;28;19920;-67
2022/12/26 02:37:03;;;;;;;;;;;;;;;-12.02;53.62;97834.16;6295723;28;19985;-67
2022/12/26 02:40:04;;;;;;;;;;;;;;;-12.00;53.48;97840.13;6294914;28;20309;-66
2022/12/26 02:43:25;;;;;;;;;;;;;;;-12.08;53.72;97833.94;6295054;28;19927;-68
2022/12/26 03:14:20;;;;;;;;;;;;;;;-11.47;53.15;97836.19;6299510;28;19920;-67
2022/12/26 03:17:34;;;;;;;;;;;;;;;-11.63;53.23;97841.50;6299389;28;19921;-68
2022/12/26 03:20:40;;;;;;;;;;;;;;;-11.65;53.15;97838.06;6299459;28;19920;-67
2022/12/26 03:23:47;;;;;;;;;;;;;;;-11.74;53.49;97838.59;6299477;28;20408;-67
2022/12/26 03:26:53;;;;;;;;;;;;;;;-11.69;53.53;97841.28;6299427;28;19920;-66
2022/12/26 03:36:54;;;;;;;;;;;;;;;-11.69;53.47;97846.34;6299170;28;19920;-66
2022/12/26 04:46:26;;;;;;;;;;;;;;;-11.07;53.34;97850.31;6297523;28;19943;-68
2022/12/26 04:52:53;;;;;;;;;;;;;;;-11.07;53.23;97845.22;6297279;28;20415;-68
2022/12/26 04:55:55;;;;;;;;;;;;;;;-10.94;52.91;97849.94;6297312;28;20278;-68
2022/12/26 04:59:00;;;;;;;;;;;;;;;-11.12;53.23;97850.16;6297158;28;19920;-67
2022/12/26 05:12:10;;;;;;;;;;;;;;;-11.03;53.25;97854.69;6295266;28;19924;-67
2022/12/26 05:15:14;;;;;;;;;;;;;;;-10.84;52.95;97858.72;6296261;28;20294;-68
2022/12/26 05:28:42;;;;;;;;;;;;;;;-10.20;52.10;97871.03;6296690;28;20373;-68
2022/12/26 05:31:46;;;;;;;;;;;;;;;-10.12;52.02;97866.19;6296591;28;19924;-67
2022/12/26 05:34:52;;;;;;;;;;;;;;;-9.92;52.06;97861.72;6296535;28;19920;-67
2022/12/26 05:37:53;;;;;;;;;;;;;;;-9.64;51.97;97873.63;6296235;28;19928;-67
2022/12/26 05:40:54;;;;;;;;;;;;;;;-9.35;51.98;97871.06;6295606;28;19920;-67
2022/12/26 05:43:55;;;;;;;;;;;;;;;-9.05;51.61;97866.84;6295823;28;20029;-68
2022/12/26 05:47:00;;;;;;;;;;;;;;;-8.83;50.94;97875.06;6296034;28;20266;-66
2022/12/26 05:50:02;;;;;;;;;;;;;;;-8.57;51.26;97869.81;6295947;28;19916;-67
2022/12/26 05:53:08;;;;;;;;;;;;;;;-8.37;50.50;97878.81;6295740;28;19920;-67
2022/12/26 05:56:13;;;;;;;;;;;;;;;-8.28;50.68;97884.13;6295590;28;19920;-68
2022/12/26 05:59:18;;;;;;;;;;;;;;;-8.51;50.25;97875.06;6296169;28;19920;-67
2022/12/26 06:02:22;;;;;;;;;;;;;;;-8.70;51.01;97879.66;6295970;28;19916;-68
2022/12/26 06:05:25;;;;;;;;;;;;;;;-8.88;51.68;97880.06;6295856;28;20536;-68
2022/12/26 06:08:26;;;;;;;;;;;;;;;-8.96;51.66;97875.56;6295905;28;19921;-68
2022/12/26 06:11:27;;;;;;;;;;;;;;;-9.05;51.28;97881.28;6295860;28;20367;-67
2022/12/26 06:14:28;;;;;;;;;;;;;;;-9.04;50.06;97877.88;6295159;28;19923;-68
2022/12/26 06:17:34;;;;;;;;;;;;;;;-9.09;49.46;97887.94;6294639;28;19920;-66
2022/12/26 06:20:38;;;;;;;;;;;;;;;-9.25;49.08;97888.34;6295485;28;19931;-68
2022/12/26 06:23:39;;;;;;;;;;;;;;;-9.43;49.40;97885.25;6295524;28;19920;-67
2022/12/26 06:26:43;;;;;;;;;;;;;;;-9.44;49.86;97886.94;6295087;28;19942;-67
2022/12/26 06:29:47;;;;;;;;;;;;;;;-9.30;49.76;97879.72;6295573;28;19921;-67
2022/12/26 06:32:48;;;;;;;;;;;;;;;-9.16;49.73;97888.63;6294922;28;20029;-67
2022/12/26 06:35:52;;;;;;;;;;;;;;;-9.00;49.42;97891.59;6294754;28;19927;-67
2022/12/26 06:38:53;;;;;;;;;;;;;;;-8.86;49.45;97892.81;6300667;28;20310;-68
2022/12/26 06:41:57;;;;;;;;;;;;;;;-8.81;49.37;97888.72;6300365;28;20404;-68
2022/12/26 06:44:58;;;;;;;;;;;;;;;-8.73;49.13;97894.03;6300220;28;19942;-68
2022/12/26 06:48:02;;;;;;;;;;;;;;;-8.68;49.22;97882.28;6300410;28;19920;-69
2022/12/26 06:51:03;;;;;;;;;;;;;;;-8.61;48.70;97887.56;6300213;28;20042;-68
2022/12/26 06:54:04;;;;;;;;;;;;;;;-8.43;47.69;97883.78;6300038;28;19920;-68
2022/12/26 06:57:06;;;;;;;;;;;;;;;-8.49;48.38;97881.06;6299273;28;20021;-68
2022/12/26 07:00:10;;;;;;;;;;;;;;;-8.40;48.07;97888.97;6300201;28;19920;-68
2022/12/26 07:03:16;;;;;;;;;;;;;;;-8.27;47.33;97882.44;6299942;28;19917;-67
2022/12/26 07:06:27;;;;;;;;;;;;;;;-8.13;47.43;97879.41;6299818;28;19927;-68
2022/12/26 07:09:32;;;;;;;;;;;;;;;-7.79;45.80;97879.34;6299477;28;20018;-68
2022/12/26 07:12:34;;;;;;;;;;;;;;;-7.79;45.87;97875.09;6299540;28;20416;-68
2022/12/26 07:15:35;;;;;;;;;;;;;;;-7.61;45.55;97879.78;6299437;28;20058;-68
2022/12/26 07:18:39;;;;;;;;;;;;;;;-7.47;45.32;97878.38;6299101;28;19920;-68
2022/12/26 07:21:45;;;;;;;;;;;;;;;-6.44;43.91;97877.88;6299581;28;19920;-68
2022/12/26 07:24:54;;;;;;;;;;;;;;;-3.68;39.10;97881.38;6299427;28;19927;-68
2022/12/26 07:27:59;;;;;;;;;;;;;;;-1.64;35.39;97883.81;6299257;28;19920;-67
2022/12/26 07:31:03;;;;;;;;;;;;;;;0.21;33.08;97884.81;6299216;28;20378;-67
2022/12/26 07:34:07;;;;;;;;;;;;;;;2.00;32.05;97882.81;6299099;28;20302;-68
2022/12/26 07:37:11;;;;;;;;;;;;;;;4.29;29.46;97888.88;6299184;28;19921;-67
2022/12/26 07:40:14;;;;;;;;;;;;;;;5.93;28.40;97892.34;6299085;28;19926;-68
2022/12/26 07:43:18;;;;;;;;;;;;;;;6.32;28.85;97894.66;6299199;28;20373;-68
2022/12/26 07:46:19;;;;;;;;;;;;;;;5.47;27.15;97895.41;6298720;28;19995;-68
2022/12/26 07:49:23;;;;;;;;;;;;;;;5.01;28.07;97889.69;6297704;28;20364;-68
2022/12/26 07:52:24;;;;;;;;;;;;;;;5.46;30.93;97886.72;6298352;28;19923;-68
2022/12/26 07:55:25;;;;;;;;;;;;;;;6.72;28.64;97899.44;6298346;28;20019;-69
2022/12/26 07:58:28;;;;;;;;;;;;;;;8.25;28.72;97897.44;6298465;28;20023;-68
2022/12/26 08:01:30;;;;;;;;;;;;;;;9.37;27.94;97891.09;6298589;28;19921;-68
2022/12/26 08:04:33;;;;;;;;;;;;;;;9.49;26.91;97901.97;6298390;28;19920;-69
2022/12/26 08:07:37;;;;;;;;;;;;;;;8.94;25.72;97898.16;6298393;28;19920;-68
2022/12/26 08:10:40;;;;;;;;;;;;;;;8.49;24.68;97893.00;6298466;28;19977;-67
2022/12/26 08:13:45;;;;;;;;;;;;;;;8.13;24.04;97887.44;6298488;28;19920;-69
2022/12/26 08:16:46;;;;;;;;;;;;;;;7.56;24.07;97881.72;6298155;28;19943;-69
2022/12/26 08:19:48;;;;;;;;;;;;;;;6.70;24.75;97875.09;6297501;28;19921;-70
2022/12/26 08:22:49;;;;;;;;;;;;;;;6.44;24.32;97869.88;6298142;28;19943;-68
2022/12/26 08:25:53;;;;;;;;;;;;;;;7.46;24.51;97865.47;6297839;28;19920;-69
2022/12/26 08:28:57;;;;;;;;;;;;;;;8.32;21.37;97859.56;6298031;28;19924;-69
2022/12/26 08:32:03;;;;;;;;;;;;;;;8.48;21.78;97858.06;6296988;28;20053;-69
2022/12/26 08:35:06;;;;;;;;;;;;;;;9.46;22.29;97847.78;6297600;28;20430;-69
2022/12/26 08:38:12;;;;;;;;;;;;;;;10.06;21.12;97858.19;6297572;28;19920;-69
2022/12/26 08:41:21;;;;;;;;;;;;;;;11.01;20.07;97850.91;6296753;28;19920;-69
2022/12/26 08:44:25;;;;;;;;;;;;;;;12.18;21.34;97855.31;6295867;28;20378;-69
2022/12/26 08:47:29;;;;;;;;;;;;;;;12.40;21.35;97855.81;6297362;28;19920;-69
2022/12/26 08:50:32;;;;;;;;;;;;;;;12.87;21.57;97854.84;6297215;28;19938;-69
2022/12/26 08:53:42;;;;;;;;;;;;;;;13.79;21.28;97845.84;6297073;28;19920;-69
2022/12/26 08:56:44;;;;;;;;;;;;;;;14.41;21.66;97853.34;6296810;28;19920;-70
2022/12/26 08:59:45;;;;;;;;;;;;;;;14.57;21.76;97851.44;6296248;28;20412;-69
2022/12/26 09:02:46;;;;;;;;;;;;;;;14.75;21.63;97842.31;6296853;28;19924;-69
2022/12/26 09:05:52;;;;;;;;;;;;;;;15.14;21.27;97837.91;6296950;28;19920;-69
2022/12/26 09:08:57;;;;;;;;;;;;;;;15.27;17.22;97838.78;6296918;28;19924;-70
2022/12/26 09:11:59;;;;;;;;;;;;;;;15.49;21.43;97838.16;6296995;28;19920;-69
2022/12/26 09:15:03;;;;;;;;;;;;;;;14.96;20.08;97828.56;6296671;28;19927;-68
2022/12/26 09:18:09;;;;;;;;;;;;;;;14.73;21.60;97835.41;6296775;28;19920;-69
2022/12/26 09:21:14;;;;;;;;;;;;;;;13.84;20.25;97835.81;6295658;28;20369;-68
2022/12/26 09:24:16;;;;;;;;;;;;;;;12.43;22.38;97831.03;6296031;28;19927;-69
2022/12/26 09:27:17;;;;;;;;;;;;;;;11.40;22.87;97833.97;6295968;28;19927;-69
2022/12/26 09:30:21;;;;;;;;;;;;;;;10.27;23.97;97830.88;6295381;28;19920;-69
2022/12/26 09:33:22;;;;;;;;;;;;;;;9.39;22.95;97815.66;6295769;28;19966;-69
2022/12/26 09:36:29;;;;;;;;;;;;;;;8.70;24.61;97830.97;6296353;28;19920;-69
2022/12/26 09:39:30;;;;;;;;;;;;;;;8.68;24.99;97827.53;6296351;28;20011;-70
2022/12/26 09:42:50;;;;;;;;;;;;;;;8.42;24.54;97829.47;6296382;28;20382;-70
2022/12/26 09:46:06;;;;;;;;;;;;;;;8.50;24.62;97824.78;6296251;28;20394;-69
2022/12/26 09:49:12;;;;;;;;;;;;;;;8.86;22.33;97825.91;6296430;28;19920;-69
2022/12/26 09:52:22;;;;;;;;;;;;;;;9.03;23.75;97819.91;6295965;28;19921;-71
2022/12/26 09:55:28;;;;;;;;;;;;;;;9.29;23.43;97824.91;6296054;28;19920;-70
2022/12/26 09:58:31;;;;;;;;;;;;;;;8.97;23.48;97819.28;6295802;28;20313;-69
2022/12/26 10:01:36;;;;;;;;;;;;;;;9.08;23.33;97818.81;6295729;28;19927;-70
2022/12/26 10:04:43;;;;;;;;;;;;;;;9.58;23.35;97814.84;6294686;28;19927;-68
2022/12/26 10:07:54;;;;;;;;;;;;;;;9.67;23.47;97824.94;6295934;28;19931;-69
2022/12/26 10:11:02;;;;;;;;;;;;;;;7.84;24.07;97821.25;6295109;28;19920;-69
2022/12/26 10:14:15;;;;;;;;;;;;;;;5.51;26.47;97821.31;6295759;28;19924;-68
2022/12/26 10:17:21;;;;;;;;;;;;;;;3.33;28.78;97816.38;6295860;28;20386;-69
2022/12/26 10:20:31;;;;;;;;;;;;;;;1.93;31.18;97815.47;6295443;28;19927;-70
2022/12/26 10:23:48;;;;;;;;;;;;;;;0.75;31.62;97814.41;6295218;28;19947;-69
2022/12/26 10:26:54;;;;;;;;;;;;;;;-0.02;32.42;97810.78;6293700;28;19920;-69
2022/12/26 10:30:05;;;;;;;;;;;;;;;-0.48;32.90;97816.28;6295460;28;19920;-70
2022/12/26 10:33:19;;;;;;;;;;;;;;;-0.84;32.72;97817.34;6295636;28;20368;-69
2022/12/26 10:36:32;;;;;;;;;;;;;;;-1.19;32.82;97814.88;6295108;28;20011;-68
2022/12/26 10:39:47;;;;;;;;;;;;;;;-1.49;33.38;97806.38;6295924;28;19924;-69
2022/12/26 10:42:55;;;;;;;;;;;;;;;-1.77;32.95;97815.00;6295536;28;19932;-69
2022/12/26 10:46:07;;;;;;;;;;;;;;;-2.02;33.40;97809.84;6295680;28;19920;-68
2022/12/26 10:49:13;;;;;;;;;;;;;;;-2.22;33.27;97809.84;6295581;28;19920;-67
2022/12/26 10:52:18;;;;;;;;;;;;;;;-2.39;33.53;97815.00;6295202;28;19920;-68
2022/12/26 10:55:25;;;;;;;;;;;;;;;-2.61;33.59;97818.38;6294498;28;19927;-69
2022/12/26 10:58:33;;;;;;;;;;;;;;;-2.83;33.71;97817.47;6295334;28;19920;-69
2022/12/26 11:01:39;;;;;;;;;;;;;;;-3.20;34.24;97820.78;6294293;28;20305;-69
2022/12/26 11:04:55;;;;;;;;;;;;;;;-3.56;34.67;97830.88;6295290;28;19920;-68
2022/12/26 11:08:17;;;;;;;;;;;;;;;-3.86;35.07;97830.66;6295211;28;19927;-69
2022/12/26 11:11:25;;;;;;;;;;;;;;;-4.24;35.80;97822.66;6294988;28;19920;-69
2022/12/26 11:14:36;;;;;;;;;;;;;;;-4.59;35.73;97830.00;6295379;28;19921;-70
2022/12/26 11:17:44;;;;;;;;;;;;;;;-4.80;35.56;97830.66;6295348;28;19920;-69
2022/12/26 11:20:48;;;;;;;;;;;;;;;-4.90;36.46;97831.38;6295013;28;19920;-68
2022/12/26 11:24:09;;;;;;;;;;;;;;;-5.23;36.25;97832.72;6297794;28;19927;-68
2022/12/26 11:27:17;;;;;;;;;;;;;;;-5.43;36.58;97841.00;6298445;28;20357;-69
2022/12/26 11:30:21;;;;;;;;;;;;;;;-5.62;36.46;97838.16;6297388;28;19927;-69
2022/12/26 11:33:22;;;;;;;;;;;;;;;-5.83;36.43;97847.28;6298538;28;19920;-68
2022/12/26 11:36:24;;;;;;;;;;;;;;;-6.07;37.71;97842.63;6299262;28;19927;-69
2022/12/26 11:39:32;;;;;;;;;;;;;;;-6.34;37.53;97843.91;6299360;28;19920;-68
2022/12/26 11:42:35;;;;;;;;;;;;;;;-6.58;37.65;97839.22;6299207;28;20306;-69
2022/12/26 11:45:40;;;;;;;;;;;;;;;-6.81;37.65;97841.34;6299044;28;19921;-69
2022/12/26 11:48:48;;;;;;;;;;;;;;;-7.05;37.89;97831.53;6299005;28;20400;-68
2022/12/26 11:51:51;;;;;;;;;;;;;;;-7.23;38.48;97837.13;6298920;28;20293;-68
2022/12/26 11:54:52;;;;;;;;;;;;;;;-7.40;38.35;97829.94;6298773;28;19920;-68
2022/12/26 11:58:16;;;;;;;;;;;;;;;-7.54;38.99;97832.19;6298300;28;19924;-69
2022/12/26 12:01:18;;;;;;;;;;;;;;;-7.66;38.77;97839.63;6297993;28;20369;-68
2022/12/26 12:04:21;;;;;;;;;;;;;;;-7.77;39.29;97842.78;6298515;28;20010;-68
2022/12/26 12:07:39;;;;;;;;;;;;;;;-7.90;39.33;97835.66;6298341;28;19921;-68
2022/12/26 12:10:47;;;;;;;;;;;;;;;-8.08;39.25;97846.31;6298059;28;19920;-68
2022/12/26 12:13:57;;;;;;;;;;;;;;;-8.18;40.01;97844.34;6297729;28;19920;-69
2022/12/26 12:17:13;;;;;;;;;;;;;;;-8.29;39.91;97851.78;6297082;28;20007;-68
2022/12/26 12:20:26;;;;;;;;;;;;;;;-8.41;39.85;97851.47;6297188;28;19920;-69
2022/12/26 12:23:48;;;;;;;;;;;;;;;-8.50;40.06;97848.72;6298215;28;20022;-70
2022/12/26 12:26:55;;;;;;;;;;;;;;;-8.57;40.41;97850.25;6298015;28;20374;-68
2022/12/26 12:30:04;;;;;;;;;;;;;;;-8.63;40.42;97848.41;6297901;28;20058;-68
2022/12/26 12:33:17;;;;;;;;;;;;;;;-8.69;40.97;97850.81;6297214;28;19928;-68
2022/12/26 12:36:37;;;;;;;;;;;;;;;-8.73;40.64;97848.97;6296830;28;19920;-68
2022/12/26 12:39:53;;;;;;;;;;;;;;;-8.78;40.62;97855.63;6297101;28;19920;-68
2022/12/26 12:43:08;;;;;;;;;;;;;;;-8.83;41.29;97850.44;6297463;28;20014;-68
2022/12/26 12:46:11;;;;;;;;;;;;;;;-8.90;41.20;97856.19;6296824;28;19935;-68
2022/12/26 12:49:18;;;;;;;;;;;;;;;-8.94;40.99;97848.44;6297229;28;19920;-68
2022/12/26 12:52:23;;;;;;;;;;;;;;;-8.98;41.31;97849.16;6297263;28;19926;-69
2022/12/26 12:55:39;;;;;;;;;;;;;;;-9.02;41.89;97860.09;6296677;28;20755;-68
2022/12/26 12:58:43;;;;;;;;;;;;;;;-9.08;41.25;97856.56;6296060;28;19924;-70
2022/12/26 13:01:48;;;;;;;;;;;;;;;-9.14;41.76;97856.38;6297013;28;19924;-68
2022/12/26 13:04:58;;;;;;;;;;;;;;;-9.18;41.59;97863.88;6296721;28;20297;-68
2022/12/26 13:08:09;;;;;;;;;;;;;;;-9.19;41.96;97863.03;6296945;28;19920;-68
2022/12/26 13:11:31;;;;;;;;;;;;;;;-9.16;42.12;97859.72;6296794;28;19927;-68
2022/12/26 13:14:32;;;;;;;;;;;;;;;-9.09;41.96;97859.91;6296154;28;20408;-69
2022/12/26 13:17:40;;;;;;;;;;;;;;;-9.09;41.83;97859.03;6295129;28;20031;-68
2022/12/26 13:20:56;;;;;;;;;;;;;;;-9.15;42.53;97862.28;6295805;28;19927;-69
2022/12/26 13:27:26;;;;;;;;;;;;;;;-9.27;42.27;97870.44;6295999;28;19920;-70
2022/12/26 13:30:27;;;;;;;;;;;;;;;-9.32;42.95;97866.91;6296019;28;20042;-68
2022/12/26 13:33:29;;;;;;;;;;;;;;;-9.37;42.89;97862.50;6296678;28;19931;-68
2022/12/26 13:36:42;;;;;;;;;;;;;;;-9.46;43.20;97868.19;6295588;28;20317;-68
2022/12/26 13:39:46;;;;;;;;;;;;;;;-9.57;43.43;97865.31;6296209;28;19920;-68
2022/12/26 13:46:41;;;;;;;;;;;;;;;-9.65;43.88;97863.34;6274445;28;19927;-68
2022/12/26 13:49:45;;;;;;;;;;;;;;;-9.58;43.89;97865.28;6296096;28;19920;-68
2022/12/26 13:52:46;;;;;;;;;;;;;;;-9.49;43.58;97863.00;6296201;28;19920;-67
2022/12/26 13:55:56;;;;;;;;;;;;;;;-9.43;43.99;97857.22;6295699;28;19920;-68
2022/12/26 13:59:02;;;;;;;;;;;;;;;-9.38;43.59;97870.97;6296232;28;20326;-68
2022/12/26 14:02:11;;;;;;;;;;;;;;;-9.34;44.46;97875.31;6296151;28;19946;-68
2022/12/26 14:05:21;;;;;;;;;;;;;;;-9.32;44.88;97873.69;6296100;28;19920;-67
2022/12/26 14:08:28;;;;;;;;;;;;;;;-9.32;44.03;97866.91;6295648;28;19920;-68
2022/12/26 14:11:38;;;;;;;;;;;;;;;-9.31;43.62;97867.78;6295804;28;19920;-67
2022/12/26 14:14:51;;;;;;;;;;;;;;;-9.36;43.35;97865.09;6295524;28;20026;-69
2022/12/26 14:18:06;;;;;;;;;;;;;;;-9.42;43.45;97864.06;6295659;28;20293;-69
2022/12/26 14:21:16;;;;;;;;;;;;;;;-9.45;43.86;97863.94;6295525;28;19921;-69
2022/12/26 14:24:31;;;;;;;;;;;;;;;-9.46;43.96;97857.13;6295715;28;20377;-68
2022/12/26 14:27:36;;;;;;;;;;;;;;;-9.49;43.99;97858.75;6295181;28;20019;-69
2022/12/26 14:30:57;;;;;;;;;;;;;;;-9.53;44.36;97856.97;6295405;28;20274;-69
2022/12/26 14:34:15;;;;;;;;;;;;;;;-9.53;44.17;97856.97;6293873;28;19920;-69
2022/12/26 14:37:30;;;;;;;;;;;;;;;-9.52;43.80;97852.72;6295091;28;19927;-68
2022/12/26 14:40:37;;;;;;;;;;;;;;;-9.46;44.41;97852.03;6295590;28;20381;-70
2022/12/26 14:43:40;;;;;;;;;;;;;;;-9.43;44.00;97845.34;6295456;28;19927;-70
2022/12/26 14:46:41;;;;;;;;;;;;;;;-9.36;44.22;97854.06;6294973;28;19920;-69
2022/12/26 14:49:42;;;;;;;;;;;;;;;-9.27;44.13;97854.31;6295505;28;19950;-69
2022/12/26 14:52:46;;;;;;;;;;;;;;;-9.14;44.29;97850.41;6293554;28;19921;-68
2022/12/26 14:55:52;;;;;;;;;;;;;;;-8.98;43.84;97854.25;6295308;28;20061;-68
2022/12/26 14:59:13;;;;;;;;;;;;;;;-8.87;43.45;97850.31;6298487;28;19928;-68
2022/12/26 15:02:16;;;;;;;;;;;;;;;-8.77;43.25;97842.09;6299420;28;19927;-69
2022/12/26 15:05:24;;;;;;;;;;;;;;;-8.67;43.02;97848.28;6299877;28;19919;-68
2022/12/26 15:08:44;;;;;;;;;;;;;;;-8.66;43.08;97848.34;6299892;28;19920;-68
2022/12/26 15:12:00;;;;;;;;;;;;;;;-8.65;43.29;97847.50;6299723;28;20487;-69
2022/12/26 15:15:20;;;;;;;;;;;;;;;-8.68;43.27;97837.22;6299391;28;19920;-68
2022/12/26 15:18:29;;;;;;;;;;;;;;;-8.74;43.74;97837.06;6299656;28;20015;-69
2022/12/26 15:21:30;;;;;;;;;;;;;;;-8.73;43.89;97831.13;6299083;28;19921;-69
2022/12/26 15:24:42;;;;;;;;;;;;;;;-8.67;43.31;97832.97;6299278;28;19920;-69
2022/12/26 15:27:52;;;;;;;;;;;;;;;-8.59;43.74;97832.34;6298912;28;19927;-68
2022/12/26 15:31:09;;;;;;;;;;;;;;;-8.51;43.45;97830.00;6299306;28;19927;-68
2022/12/26 15:34:10;;;;;;;;;;;;;;;-8.45;43.87;97834.38;6299124;28;20404;-68
2022/12/26 15:37:13;;;;;;;;;;;;;;;-8.41;43.34;97831.06;6297574;28;20013;-69
2022/12/26 15:40:17;;;;;;;;;;;;;;;-8.36;43.44;97829.47;6299172;28;19920;-68
2022/12/26 15:43:18;;;;;;;;;;;;;;;-8.33;43.37;97819.31;6298965;28;19920;-68
2022/12/26 15:46:28;;;;;;;;;;;;;;;-8.29;43.16;97823.69;6298729;28;20019;-69
2022/12/26 15:49:29;;;;;;;;;;;;;;;-8.31;43.15;97822.78;6298853;28;19927;-69
2022/12/26 15:52:36;;;;;;;;;;;;;;;-8.37;43.24;97822.66;6298600;28;19920;-68
2022/12/26 15:55:43;;;;;;;;;;;;;;;-8.41;43.64;97820.84;6298303;28;20274;-69
2022/12/26 15:59:11;;;;;;;;;;;;;;;-8.37;43.36;97822.66;6298917;28;19982;-69
2022/12/26 16:02:33;;;;;;;;;;;;;;;-8.33;43.51;97816.78;6298654;28;19927;-68
2022/12/26 16:05:34;;;;;;;;;;;;;;;-8.30;43.71;97816.84;6297393;28;19916;-69
2022/12/26 16:08:40;;;;;;;;;;;;;;;-8.30;43.68;97808.34;6297665;28;19921;-68
2022/12/26 16:11:48;;;;;;;;;;;;;;;-8.33;43.68;97809.13;6298092;28;19920;-69
2022/12/26 16:15:13;;;;;;;;;;;;;;;-8.38;43.60;97805.59;6298453;28;20020;-68
2022/12/26 16:18:21;;;;;;;;;;;;;;;-8.43;44.04;97797.00;6298337;28;20385;-69
2022/12/26 16:24:47;;;;;;;;;;;;;;;-8.44;44.46;97790.16;6298392;28;19928;-69
2022/12/26 16:27:49;;;;;;;;;;;;;;;-8.43;44.82;97781.69;6297703;28;20310;-68
2022/12/26 16:30:54;;;;;;;;;;;;;;;-8.43;44.91;97777.44;6298242;28;20400;-69
2022/12/26 16:34:00;;;;;;;;;;;;;;;-8.43;45.23;97781.69;6298130;28;19926;-68
2022/12/26 16:37:05;;;;;;;;;;;;;;;-8.45;44.72;97775.69;6298123;28;20023;-69
2022/12/26 16:40:06;;;;;;;;;;;;;;;-8.46;45.28;97771.41;6297661;28;20386;-69
2022/12/26 16:43:28;;;;;;;;;;;;;;;-8.50;44.72;97769.59;6297136;28;19928;-68
2022/12/26 16:46:29;;;;;;;;;;;;;;;-8.56;45.17;97762.66;6297525;28;20447;-69
2022/12/26 16:49:36;;;;;;;;;;;;;;;-8.60;45.33;97766.84;6296969;28;20019;-69
2022/12/26 16:52:39;;;;;;;;;;;;;;;-8.61;45.00;97769.34;6297366;28;20060;-69
2022/12/26 16:55:43;;;;;;;;;;;;;;;-8.59;45.04;97770.25;6297170;28;20420;-68
2022/12/26 16:58:50;;;;;;;;;;;;;;;-8.54;44.92;97767.81;6297308;28;19920;-68
2022/12/26 17:01:55;;;;;;;;;;;;;;;-8.49;45.02;97776.41;6297462;28;19920;-68
2022/12/26 17:05:01;;;;;;;;;;;;;;;-8.46;45.42;97758.66;6297341;28;19946;-68
2022/12/26 17:08:03;;;;;;;;;;;;;;;-8.44;44.84;97764.63;6297223;28;19920;-68
2022/12/26 17:11:08;;;;;;;;;;;;;;;-8.46;44.68;97756.97;6297096;28;20070;-68
2022/12/26 17:14:17;;;;;;;;;;;;;;;-8.47;45.19;97764.56;6297062;28;19927;-68
2022/12/26 17:17:21;;;;;;;;;;;;;;;-8.49;45.16;97756.88;6296379;28;20377;-69
2022/12/26 17:20:22;;;;;;;;;;;;;;;-8.48;45.74;97762.84;6296828;28;19927;-69
2022/12/26 17:23:31;;;;;;;;;;;;;;;-8.51;45.32;97763.63;6296518;28;20018;-69
2022/12/26 17:26:34;;;;;;;;;;;;;;;-8.53;45.66;97769.53;6296790;28;19926;-68
2022/12/26 17:30:00;;;;;;;;;;;;;;;-8.51;45.55;97760.22;6296877;28;19920;-68
2022/12/26 17:33:04;;;;;;;;;;;;;;;-8.46;45.53;97761.22;6296260;28;19920;-68
2022/12/26 17:36:10;;;;;;;;;;;;;;;-8.38;45.95;97764.75;6296371;28;19920;-68
2022/12/26 17:39:24;;;;;;;;;;;;;;;-8.32;46.35;97764.91;6296516;28;20023;-68
2022/12/26 17:42:27;;;;;;;;;;;;;;;-8.26;46.00;97765.06;6295573;28;19920;-69
2022/12/26 17:45:31;;;;;;;;;;;;;;;-8.20;46.74;97762.63;6296565;28;20027;-70
2022/12/26 17:48:35;;;;;;;;;;;;;;;-8.11;46.50;97768.78;6296418;28;19920;-68
2022/12/26 17:51:38;;;;;;;;;;;;;;;-8.01;46.51;97755.38;6296350;28;19920;-68
2022/12/26 17:54:45;;;;;;;;;;;;;;;-7.89;45.75;97755.66;6296161;28;20022;-69
2022/12/26 17:57:46;;;;;;;;;;;;;;;-7.77;45.08;97760.16;6294427;28;19966;-68
2022/12/26 18:00:50;;;;;;;;;;;;;;;-7.68;45.43;97753.53;6295790;28;19920;-70
2022/12/26 18:03:56;;;;;;;;;;;;;;;-7.59;44.81;97749.44;6295964;28;19916;-67
2022/12/26 18:06:59;;;;;;;;;;;;;;;-7.52;45.19;97749.63;6296256;28;19971;-68
2022/12/26 18:10:04;;;;;;;;;;;;;;;-7.46;45.72;97757.41;6296022;28;19928;-68
2022/12/26 18:13:05;;;;;;;;;;;;;;;-7.38;45.99;97754.16;6296185;28;19920;-67
2022/12/26 18:16:06;;;;;;;;;;;;;;;-7.33;45.97;97753.41;6293935;28;19973;-68
2022/12/26 18:19:13;;;;;;;;;;;;;;;-7.33;45.91;97758.53;6296005;28;19920;-67
2022/12/26 18:22:17;;;;;;;;;;;;;;;-7.32;45.67;97750.00;6295579;28;19920;-68
2022/12/26 18:25:23;;;;;;;;;;;;;;;-7.26;45.53;97750.13;6295847;28;20317;-69
2022/12/26 18:28:24;;;;;;;;;;;;;;;-7.21;45.78;97747.66;6295814;28;19920;-68